createdAt,value
2022-10-11T00:00:45.432Z,11.90
2022-10-11T00:03:32.486Z,11.90
2022-10-11T00:05:59.734Z,11.80
2022-10-11T00:08:26.786Z,11.70
2022-10-11T00:11:02.110Z,11.70
2022-10-11T00:13:29.640Z,11.70
2022-10-11T00:15:57.390Z,11.60
2022-10-11T00:18:44.967Z,11.60
2022-10-11T00:21:15.386Z,11.50
2022-10-11T00:23:43.646Z,11.50
2022-10-11T00:26:11.345Z,11.40
2022-10-11T00:28:39.722Z,11.30
2022-10-11T00:31:12.120Z,11.30
2022-10-11T00:33:42.707Z,11.30
2022-10-11T00:36:10.676Z,11.30
2022-10-11T00:38:42.836Z,11.30
2022-10-11T00:41:10.988Z,11.30
2022-10-11T00:43:41.094Z,11.30
2022-10-11T00:46:30.143Z,11.30
2022-10-11T00:49:02.857Z,11.20
2022-10-11T00:51:50.980Z,11.20
2022-10-11T00:54:22.256Z,11.10
2022-10-11T00:57:03.156Z,11.00
2022-10-11T00:59:37.830Z,11.00
2022-10-11T01:02:06.672Z,11.00
2022-10-11T01:04:34.887Z,10.90
2022-10-11T01:07:02.593Z,10.90
2022-10-11T01:09:30.415Z,10.90
2022-10-11T01:12:03.057Z,10.90
2022-10-11T01:15:14.348Z,10.90
2022-10-11T01:18:02.790Z,10.80
2022-10-11T01:20:57.356Z,10.80
2022-10-11T01:23:40.137Z,10.80
2022-10-11T01:26:37.319Z,10.80
2022-10-11T01:29:30.476Z,10.80
2022-10-11T01:32:21.050Z,10.80
2022-10-11T01:35:14.351Z,10.80
2022-10-11T01:37:53.806Z,10.80
2022-10-11T01:40:33.242Z,10.80
2022-10-11T01:43:02.356Z,10.90
2022-10-11T01:45:31.191Z,10.90
2022-10-11T01:48:09.386Z,10.90
2022-10-11T01:50:56.221Z,10.90
2022-10-11T01:53:57.237Z,10.90
2022-10-11T01:56:39.617Z,10.90
2022-10-11T01:59:27.668Z,10.90
2022-10-11T02:02:04.118Z,10.90
2022-10-11T02:04:44.200Z,10.90
2022-10-11T02:07:29.197Z,10.90
2022-10-11T02:09:59.672Z,10.90
2022-10-11T02:12:42.124Z,10.90
2022-10-11T02:15:14.813Z,10.90
2022-10-11T02:17:49.985Z,10.90
2022-10-11T02:20:21.635Z,10.80
2022-10-11T02:22:53.515Z,10.80
2022-10-11T02:25:30.594Z,10.70
2022-10-11T02:28:01.204Z,10.70
2022-10-11T02:30:30.580Z,10.70
2022-10-11T02:32:58.819Z,10.70
2022-10-11T02:35:29.476Z,10.80
2022-10-11T02:38:20.643Z,10.80
2022-10-11T02:40:56.513Z,10.90
2022-10-11T02:43:29.366Z,10.90
2022-10-11T02:46:02.755Z,11.10
2022-10-11T02:48:32.425Z,11.20
2022-10-11T02:50:59.804Z,11.20
2022-10-11T02:53:27.179Z,11.30
2022-10-11T02:55:57.153Z,11.30
2022-10-11T02:58:26.922Z,11.30
2022-10-11T03:03:36.169Z,11.30
2022-10-11T03:06:06.297Z,11.30
2022-10-11T03:08:36.316Z,11.40
2022-10-11T03:11:05.823Z,11.40
2022-10-11T03:13:33.198Z,11.40
2022-10-11T03:16:03.660Z,11.40
2022-10-11T03:18:33.652Z,11.40
2022-10-11T03:21:01.163Z,11.30
2022-10-11T03:23:28.423Z,11.30
2022-10-11T03:25:55.485Z,11.20
2022-10-11T03:28:25.333Z,11.20
2022-10-11T03:30:54.652Z,11.20
2022-10-11T03:33:24.318Z,11.20
2022-10-11T03:35:51.681Z,11.20
2022-10-11T03:38:21.523Z,11.20
2022-10-11T03:40:49.379Z,11.20
2022-10-11T03:43:19.339Z,11.30
2022-10-11T03:45:46.649Z,11.30
2022-10-11T03:48:13.787Z,11.40
2022-10-11T03:50:41.118Z,11.50
2022-10-11T03:53:08.893Z,11.50
2022-10-11T03:55:39.378Z,11.60
2022-10-11T03:58:07.231Z,11.70
2022-10-11T04:00:39.396Z,11.70
2022-10-11T04:03:06.479Z,11.80
2022-10-11T04:05:33.780Z,11.80
2022-10-11T04:08:00.821Z,11.90
2022-10-11T04:10:30.429Z,11.90
2022-10-11T04:12:57.881Z,12.00
2022-10-11T04:15:25.102Z,12.00
2022-10-11T04:17:52.299Z,12.00
2022-10-11T04:20:19.718Z,12.00
2022-10-11T04:22:46.941Z,12.00
2022-10-11T04:25:16.365Z,12.00
2022-10-11T04:27:46.225Z,12.00
2022-10-11T04:30:13.739Z,12.00
2022-10-11T04:32:43.526Z,11.90
2022-10-11T04:35:11.825Z,11.80
2022-10-11T04:37:41.145Z,11.80
2022-10-11T04:40:09.236Z,11.80
2022-10-11T04:42:36.804Z,11.80
2022-10-11T04:45:04.063Z,11.80
2022-10-11T04:47:34.427Z,11.80
2022-10-11T04:50:02.123Z,11.80
2022-10-11T04:52:29.334Z,11.80
2022-10-11T04:54:56.554Z,11.70
2022-10-11T04:57:24.186Z,11.70
2022-10-11T04:59:53.938Z,11.70
2022-10-11T05:02:23.636Z,11.60
2022-10-11T05:04:53.703Z,11.50
2022-10-11T05:07:20.674Z,11.50
2022-10-11T05:09:49.891Z,11.50
2022-10-11T05:12:17.275Z,11.50
2022-10-11T05:14:44.373Z,11.60
2022-10-11T05:17:13.902Z,11.70
2022-10-11T05:19:43.766Z,11.80
2022-10-11T05:22:15.655Z,11.80
2022-10-11T05:24:45.574Z,11.90
2022-10-11T05:27:12.576Z,11.90
2022-10-11T05:29:39.628Z,11.90
2022-10-11T05:32:09.767Z,12.00
2022-10-11T05:34:36.737Z,12.00
2022-10-11T05:37:04.013Z,12.10
2022-10-11T05:39:31.397Z,12.10
2022-10-11T05:41:58.476Z,12.10
2022-10-11T05:44:28.175Z,12.20
2022-10-11T05:46:55.435Z,12.10
2022-10-11T05:49:22.501Z,12.20
2022-10-11T05:51:52.199Z,12.20
2022-10-11T05:54:19.473Z,12.30
2022-10-11T05:56:46.634Z,12.30
2022-10-11T05:59:16.418Z,12.40
2022-10-11T06:01:46.332Z,12.40
2022-10-11T06:04:13.413Z,12.50
2022-10-11T06:06:40.867Z,12.50
2022-10-11T06:09:08.680Z,12.50
2022-10-11T06:11:36.009Z,12.50
2022-10-11T06:14:03.487Z,12.50
2022-10-11T06:16:30.955Z,12.50
2022-10-11T06:18:58.398Z,12.50
2022-10-11T06:21:28.340Z,12.60
2022-10-11T06:24:01.137Z,12.60
2022-10-11T06:26:29.898Z,12.70
2022-10-11T06:28:57.732Z,12.90
2022-10-11T06:31:27.151Z,13.00
2022-10-11T06:33:58.765Z,13.10
2022-10-11T06:36:26.240Z,13.20
2022-10-11T06:38:54.740Z,13.30
2022-10-11T06:41:26.450Z,13.20
2022-10-11T06:43:53.770Z,13.20
2022-10-11T06:46:22.580Z,13.20
2022-10-11T06:48:50.779Z,13.30
2022-10-11T06:51:21.322Z,13.50
2022-10-11T06:53:55.880Z,15.00
2022-10-11T06:56:23.856Z,16.70
2022-10-11T06:58:50.895Z,17.40
2022-10-11T07:01:18.077Z,19.30
2022-10-11T07:03:45.501Z,21.20
2022-10-11T07:06:16.428Z,20.20
2022-10-11T07:08:43.721Z,19.20
2022-10-11T07:11:13.328Z,18.30
2022-10-11T07:13:43.184Z,18.00
2022-10-11T07:16:13.794Z,20.40
2022-10-11T07:18:41.080Z,25.10
2022-10-11T07:21:11.506Z,29.10
2022-10-11T07:23:39.273Z,33.50
2022-10-11T07:26:10.210Z,36.80
2022-10-11T07:28:38.565Z,38.10
2022-10-11T07:31:16.956Z,39.40
2022-10-11T07:33:49.523Z,40.30
2022-10-11T07:36:16.953Z,41.20
2022-10-11T07:38:46.364Z,41.40
2022-10-11T07:41:13.865Z,42.10
2022-10-11T07:43:43.654Z,42.50
2022-10-11T07:46:11.314Z,43.30
2022-10-11T07:48:41.748Z,43.20
2022-10-11T07:51:27.037Z,43.00
2022-10-11T07:53:58.068Z,44.10
2022-10-11T07:56:29.000Z,44.40
2022-10-11T07:59:00.919Z,45.10
2022-10-11T08:01:28.764Z,45.50
2022-10-11T08:03:56.305Z,45.40
2022-10-11T08:06:25.644Z,45.00
2022-10-11T08:08:52.724Z,45.80
2022-10-11T08:11:22.714Z,46.00
2022-10-11T08:13:52.887Z,43.90
2022-10-11T08:16:20.551Z,44.00
2022-10-11T08:18:47.986Z,45.20
2022-10-11T08:21:17.259Z,46.30
2022-10-11T08:23:44.584Z,46.70
2022-10-11T08:26:11.918Z,46.60
2022-10-11T08:28:39.575Z,47.50
2022-10-11T08:31:11.347Z,48.00
2022-10-11T08:33:38.406Z,48.50
2022-10-11T08:36:07.468Z,49.00
2022-10-11T08:38:36.869Z,48.70
2022-10-11T08:41:24.350Z,48.80
2022-10-11T08:44:02.430Z,49.10
2022-10-11T08:46:33.300Z,48.40
2022-10-11T08:49:02.195Z,48.50
2022-10-11T08:51:54.186Z,48.20
2022-10-11T08:54:39.633Z,48.20
2022-10-11T08:57:11.311Z,48.30
2022-10-11T08:59:45.206Z,48.30
2022-10-11T09:03:03.057Z,48.40
2022-10-11T09:05:32.354Z,48.10
2022-10-11T09:08:28.362Z,48.40
2022-10-11T09:11:14.015Z,48.20
2022-10-11T09:13:55.897Z,48.60
2022-10-11T09:16:41.251Z,48.60
2022-10-11T09:19:26.720Z,48.20
2022-10-11T09:22:21.093Z,47.90
2022-10-11T09:25:20.616Z,47.10
2022-10-11T09:28:03.258Z,47.30
2022-10-11T09:30:31.544Z,47.20
2022-10-11T09:33:07.988Z,46.80
2022-10-11T09:35:41.170Z,46.60
2022-10-11T09:38:26.498Z,46.20
2022-10-11T09:40:59.711Z,46.50
2022-10-11T09:43:27.212Z,45.80
2022-10-11T09:45:54.225Z,45.90
2022-10-11T09:48:25.102Z,45.00
2022-10-11T09:50:56.952Z,44.40
2022-10-11T09:53:49.987Z,44.20
2022-10-11T09:56:17.560Z,44.00
2022-10-11T09:58:47.131Z,43.60
2022-10-11T10:01:24.477Z,43.00
2022-10-11T10:04:12.239Z,42.00
2022-10-11T10:06:41.946Z,40.20
2022-10-11T10:09:29.572Z,36.50
2022-10-11T10:11:59.165Z,35.00
2022-10-11T10:14:32.967Z,33.90
2022-10-11T10:17:14.881Z,33.70
2022-10-11T10:19:51.718Z,34.30
2022-10-11T10:22:28.607Z,35.10
2022-10-11T10:24:57.369Z,35.10
2022-10-11T10:27:25.888Z,35.70
2022-10-11T10:30:19.190Z,36.00
2022-10-11T10:32:58.301Z,36.10
2022-10-11T10:35:34.076Z,36.10
2022-10-11T10:38:12.867Z,35.60
2022-10-11T10:40:52.271Z,35.80
2022-10-11T10:43:24.403Z,35.70
2022-10-11T10:46:11.788Z,35.30
2022-10-11T10:51:58.368Z,35.30
2022-10-11T10:55:07.749Z,35.20
2022-10-11T10:57:47.437Z,35.60
2022-10-11T11:00:21.164Z,35.50
2022-10-11T11:02:58.818Z,35.40
2022-10-11T11:05:46.010Z,35.30
2022-10-11T11:08:35.922Z,35.00
2022-10-11T11:11:06.098Z,34.90
2022-10-11T11:13:59.333Z,34.70
2022-10-11T11:17:02.751Z,34.50
2022-10-11T11:19:39.469Z,34.20
2022-10-11T11:22:22.411Z,31.90
2022-10-11T11:25:00.535Z,29.30
2022-10-11T11:27:43.160Z,27.40
2022-10-11T11:30:17.094Z,25.80
2022-10-11T11:35:27.149Z,23.50
2022-10-11T11:38:06.200Z,22.60
2022-10-11T11:40:40.986Z,21.90
2022-10-11T11:43:36.105Z,21.00
2022-10-11T11:46:17.651Z,20.30
2022-10-11T11:48:44.984Z,19.60
2022-10-11T11:51:32.585Z,19.20
2022-10-11T11:54:15.193Z,18.80
2022-10-11T11:56:45.165Z,18.50
2022-10-11T11:59:52.675Z,18.20
2022-10-11T12:02:34.958Z,18.00
2022-10-11T12:05:05.222Z,17.90
2022-10-11T12:07:46.306Z,17.70
2022-10-11T12:10:32.184Z,17.60
2022-10-11T12:13:31.193Z,17.50
2022-10-11T12:16:04.567Z,17.40
2022-10-11T12:18:35.627Z,17.40
2022-10-11T12:21:20.313Z,17.30
2022-10-11T12:23:52.098Z,17.10
2022-10-11T12:26:28.778Z,16.90
2022-10-11T12:29:28.230Z,16.70
2022-10-11T12:31:59.305Z,16.60
2022-10-11T12:37:19.855Z,16.60
2022-10-11T12:39:54.462Z,16.60
2022-10-11T12:42:28.800Z,16.50
2022-10-11T12:45:11.304Z,16.50
2022-10-11T12:47:53.552Z,16.50
2022-10-11T12:50:23.557Z,16.60
2022-10-11T12:52:53.685Z,16.60
2022-10-11T12:55:27.064Z,16.60
2022-10-11T12:57:54.357Z,16.50
2022-10-11T13:00:21.331Z,16.50
2022-10-11T13:02:51.279Z,16.40
2022-10-11T13:05:22.164Z,16.30
2022-10-11T13:07:50.207Z,16.30
2022-10-11T13:10:24.392Z,16.40
2022-10-11T13:12:53.279Z,16.30
2022-10-11T13:15:22.609Z,16.20
2022-10-11T13:17:49.914Z,16.10
2022-10-11T13:20:17.328Z,16.10
2022-10-11T13:22:50.523Z,16.20
2022-10-11T13:25:22.476Z,16.20
2022-10-11T13:27:51.699Z,16.20
2022-10-11T13:30:25.218Z,16.20
2022-10-11T13:32:53.393Z,16.30
2022-10-11T13:35:38.673Z,16.20
2022-10-11T13:38:23.876Z,16.20
2022-10-11T13:40:55.989Z,16.10
2022-10-11T13:43:28.666Z,16.00
2022-10-11T13:45:58.594Z,15.80
2022-10-11T13:48:31.470Z,15.70
2022-10-11T13:51:28.183Z,15.60
2022-10-11T13:54:13.611Z,15.50
2022-10-11T13:56:50.215Z,15.50
2022-10-11T13:59:22.837Z,15.40
2022-10-11T14:01:59.982Z,15.40
2022-10-11T14:04:29.888Z,15.40
2022-10-11T14:07:00.791Z,15.50
2022-10-11T14:09:34.547Z,15.40
2022-10-11T14:12:26.949Z,15.30
2022-10-11T14:14:56.707Z,15.30
2022-10-11T14:17:41.436Z,15.30
2022-10-11T14:20:11.897Z,15.30
2022-10-11T14:22:39.407Z,15.20
2022-10-11T14:25:09.111Z,15.20
2022-10-11T14:27:39.914Z,15.20
2022-10-11T14:30:27.570Z,15.10
2022-10-11T14:33:01.149Z,15.10
2022-10-11T14:35:32.361Z,15.00
2022-10-11T14:38:00.476Z,15.00
2022-10-11T14:40:29.690Z,14.90
2022-10-11T14:42:57.472Z,14.80
2022-10-11T14:45:26.238Z,14.70
2022-10-11T14:47:53.365Z,14.70
2022-10-11T14:50:43.076Z,14.60
2022-10-11T14:53:11.246Z,14.50
2022-10-11T14:55:40.173Z,14.40
2022-10-11T14:58:13.514Z,14.40
2022-10-11T15:00:41.254Z,14.40
2022-10-11T15:03:08.554Z,14.30
2022-10-11T15:05:37.096Z,14.30
2022-10-11T15:08:06.167Z,14.30
2022-10-11T15:10:40.848Z,14.20
2022-10-11T15:13:09.057Z,14.20
2022-10-11T15:15:38.499Z,14.20
2022-10-11T15:18:15.827Z,14.10
2022-10-11T15:20:45.911Z,14.10
2022-10-11T15:23:13.506Z,14.10
2022-10-11T15:25:45.250Z,14.00
2022-10-11T15:28:39.427Z,14.00
2022-10-11T15:31:06.838Z,13.90
2022-10-11T15:33:34.321Z,13.80
2022-10-11T15:36:01.393Z,13.80
2022-10-11T15:38:33.258Z,13.80
2022-10-11T15:41:00.811Z,13.70
2022-10-11T15:43:30.678Z,13.70
2022-10-11T15:45:58.351Z,13.60
2022-10-11T15:48:26.900Z,13.60
2022-10-11T15:50:56.342Z,13.50
2022-10-11T15:53:29.461Z,13.50
2022-10-11T15:56:03.341Z,13.30
2022-10-11T15:58:34.272Z,13.30
2022-10-11T16:01:07.340Z,13.20
2022-10-11T16:03:35.307Z,13.10
2022-10-11T16:06:05.838Z,13.10
2022-10-11T16:08:34.278Z,13.00
2022-10-11T16:11:02.515Z,12.90
2022-10-11T16:13:30.079Z,12.80
2022-10-11T16:15:57.918Z,12.70
2022-10-11T16:18:25.170Z,12.60
2022-10-11T16:20:52.886Z,12.50
2022-10-11T16:23:22.088Z,12.50
2022-10-11T16:26:00.142Z,12.50
2022-10-11T16:28:28.264Z,12.50
2022-10-11T16:30:56.268Z,12.50
2022-10-11T16:33:24.177Z,12.40
2022-10-11T16:35:51.498Z,12.20
2022-10-11T16:38:18.589Z,12.10
2022-10-11T16:40:48.267Z,12.00
2022-10-11T16:43:15.538Z,11.90
2022-10-11T16:45:45.341Z,11.80
2022-10-11T16:48:12.603Z,11.70
2022-10-11T16:50:39.949Z,11.70
2022-10-11T16:53:09.400Z,11.60
2022-10-11T16:55:39.595Z,11.50
2022-10-11T16:58:09.524Z,11.50
2022-10-11T17:00:41.660Z,11.40
2022-10-11T17:03:09.154Z,11.30
2022-10-11T17:05:36.710Z,11.20
2022-10-11T17:08:04.240Z,11.10
2022-10-11T17:10:33.734Z,11.00
2022-10-11T17:13:00.927Z,10.90
2022-10-11T17:15:32.885Z,10.80
2022-10-11T17:18:02.902Z,10.70
2022-10-11T17:20:30.430Z,10.60
2022-10-11T17:22:58.240Z,10.50
2022-10-11T17:25:27.967Z,10.40
2022-10-11T17:27:56.537Z,10.30
2022-10-11T17:30:24.851Z,10.20
2022-10-11T17:32:52.845Z,10.10
2022-10-11T17:35:22.490Z,10.00
2022-10-11T17:37:49.497Z,10.00
2022-10-11T17:40:17.303Z,9.90
2022-10-11T17:42:44.482Z,9.90
2022-10-11T17:45:14.018Z,9.80
2022-10-11T17:47:41.569Z,9.80
2022-10-11T17:50:10.902Z,9.80
2022-10-11T17:52:38.186Z,9.70
2022-10-11T17:55:05.743Z,9.70
2022-10-11T17:57:32.814Z,9.70
2022-10-11T18:00:03.458Z,9.60
2022-10-11T18:02:31.792Z,9.50
2022-10-11T18:04:58.823Z,9.40
2022-10-11T18:07:26.290Z,9.40
2022-10-11T18:09:53.450Z,9.30
2022-10-11T18:12:20.710Z,9.30
2022-10-11T18:14:47.697Z,9.20
2022-10-11T18:17:15.234Z,9.20
2022-10-11T18:19:42.387Z,9.10
2022-10-11T18:22:09.396Z,9.10
2022-10-11T18:24:36.759Z,9.00
2022-10-11T18:27:03.887Z,9.00
2022-10-11T18:29:30.850Z,8.90
2022-10-11T18:31:58.236Z,8.90
2022-10-11T18:34:25.335Z,8.90
2022-10-11T18:36:55.367Z,8.80
2022-10-11T18:39:22.718Z,8.80
2022-10-11T18:41:50.099Z,8.80
2022-10-11T18:44:17.090Z,8.80
2022-10-11T18:46:44.806Z,8.80
2022-10-11T18:49:14.479Z,8.80
2022-10-11T18:51:44.977Z,8.90
2022-10-11T18:54:15.287Z,8.90
2022-10-11T18:56:47.874Z,8.80
2022-10-11T18:59:15.638Z,8.70
2022-10-11T19:01:44.347Z,8.80
2022-10-11T19:04:13.148Z,8.70
2022-10-11T19:06:45.069Z,8.60
2022-10-11T19:09:18.857Z,8.50
2022-10-11T19:11:46.338Z,8.50
2022-10-11T19:14:15.505Z,8.40
2022-10-11T19:16:47.132Z,8.40
2022-10-11T19:19:14.511Z,8.30
2022-10-11T19:21:41.866Z,8.30
2022-10-11T19:24:09.402Z,8.30
2022-10-11T19:26:39.325Z,8.20
2022-10-11T19:29:12.506Z,8.10
2022-10-11T19:31:47.558Z,8.10
2022-10-11T19:34:17.148Z,8.10
2022-10-11T19:36:44.959Z,8.10
2022-10-11T19:39:16.182Z,8.10
2022-10-11T19:41:44.642Z,8.10
2022-10-11T19:44:13.533Z,8.10
2022-10-11T19:46:51.516Z,8.00
2022-10-11T19:49:23.703Z,8.00
2022-10-11T19:51:53.951Z,8.00
2022-10-11T19:54:21.481Z,8.00
2022-10-11T19:56:50.901Z,8.00
2022-10-11T19:59:18.541Z,7.90
2022-10-11T20:01:51.973Z,7.90
2022-10-11T20:07:10.686Z,7.90
2022-10-11T20:09:40.204Z,7.80
2022-10-11T20:12:10.388Z,7.80
2022-10-11T20:14:37.848Z,7.80
2022-10-11T20:17:05.165Z,7.80
2022-10-11T20:19:32.885Z,7.80
2022-10-11T20:22:01.408Z,7.80
2022-10-11T20:24:29.142Z,7.70
2022-10-11T20:26:56.524Z,7.70
2022-10-11T20:29:25.005Z,7.70
2022-10-11T20:31:52.422Z,7.60
2022-10-11T20:34:19.487Z,7.60
2022-10-11T20:36:49.534Z,7.60
2022-10-11T20:39:16.785Z,7.60
2022-10-11T20:41:44.026Z,7.70
2022-10-11T20:44:11.496Z,7.70
2022-10-11T20:46:42.051Z,7.70
2022-10-11T20:49:12.642Z,7.60
2022-10-11T20:51:41.641Z,7.50
2022-10-11T20:54:09.423Z,7.50
2022-10-11T20:56:37.157Z,7.50
2022-10-11T20:59:04.564Z,7.50
2022-10-11T21:01:37.075Z,7.50
2022-10-11T21:04:14.206Z,7.40
2022-10-11T21:06:43.725Z,7.40
2022-10-11T21:09:13.987Z,7.40
2022-10-11T21:11:43.745Z,7.40
2022-10-11T21:14:11.202Z,7.40
2022-10-11T21:16:38.428Z,7.40
2022-10-11T21:19:11.511Z,7.40
2022-10-11T21:21:38.708Z,7.40
2022-10-11T21:24:06.084Z,7.40
2022-10-11T21:26:35.879Z,7.40
2022-10-11T21:29:05.388Z,7.40
2022-10-11T21:31:34.449Z,7.40
2022-10-11T21:34:03.093Z,7.50
2022-10-11T21:36:30.264Z,7.40
2022-10-11T21:38:57.339Z,7.40
2022-10-11T21:41:27.835Z,7.40
2022-10-11T21:43:58.488Z,7.30
2022-10-11T21:46:47.485Z,7.20
2022-10-11T21:49:18.210Z,7.20
2022-10-11T21:51:45.678Z,7.10
2022-10-11T21:54:12.706Z,7.10
2022-10-11T21:56:40.286Z,7.10
2022-10-11T21:59:11.097Z,7.10
2022-10-11T22:01:39.901Z,7.00
2022-10-11T22:04:07.386Z,7.00
2022-10-11T22:06:35.082Z,7.00
2022-10-11T22:09:05.307Z,7.10
2022-10-11T22:11:35.074Z,7.10
2022-10-11T22:14:02.228Z,7.20
2022-10-11T22:16:29.417Z,7.20
2022-10-11T22:18:56.600Z,7.20
2022-10-11T22:21:24.633Z,7.20
2022-10-11T22:23:55.396Z,7.20
2022-10-11T22:26:26.027Z,7.20
2022-10-11T22:28:53.505Z,7.10
2022-10-11T22:31:23.214Z,7.10
2022-10-11T22:33:55.421Z,7.00
2022-10-11T22:36:26.076Z,7.00
2022-10-11T22:38:54.339Z,7.00
2022-10-11T22:41:21.392Z,6.90
2022-10-11T22:43:48.825Z,6.90
2022-10-11T22:46:16.627Z,6.90
2022-10-11T22:48:46.203Z,6.80
2022-10-11T22:51:15.532Z,6.90
2022-10-11T22:53:45.564Z,6.90
2022-10-11T22:56:12.872Z,6.80
2022-10-11T22:58:39.967Z,6.80
2022-10-11T23:01:09.271Z,6.80
2022-10-11T23:03:36.820Z,6.70
2022-10-11T23:06:04.821Z,6.70
2022-10-11T23:08:32.187Z,6.70
2022-10-11T23:11:08.201Z,6.70
2022-10-11T23:13:38.224Z,6.70
2022-10-11T23:16:09.949Z,6.70
2022-10-11T23:18:38.106Z,6.70
2022-10-11T23:21:06.285Z,6.80
2022-10-11T23:23:33.528Z,6.70
2022-10-11T23:26:21.440Z,6.80
2022-10-11T23:28:54.193Z,6.70
2022-10-11T23:31:22.000Z,6.70
2022-10-11T23:33:49.087Z,6.70
2022-10-11T23:36:21.658Z,6.70
2022-10-11T23:38:56.588Z,6.70
2022-10-11T23:41:28.902Z,6.70
2022-10-11T23:43:58.894Z,6.70
2022-10-11T23:46:25.863Z,6.70
2022-10-11T23:48:55.539Z,6.60
2022-10-11T23:51:23.089Z,6.60
2022-10-11T23:53:50.255Z,6.60
2022-10-11T23:56:19.760Z,6.50
2022-10-11T23:58:47.156Z,6.50
